createdAt,value
2023-03-15T03:58:56.076Z,0.00
2023-03-15T03:59:56.058Z,0.00
2023-03-15T04:00:56.008Z,0.00
2023-03-15T04:01:55.992Z,0.00
2023-03-15T04:02:56.079Z,0.00
2023-03-15T04:03:55.992Z,0.00
2023-03-15T04:04:56.069Z,0.00
2023-03-15T04:05:55.968Z,0.00
2023-03-15T04:06:55.957Z,0.00
2023-03-15T04:07:55.981Z,0.00
2023-03-15T04:08:55.961Z,0.00
2023-03-15T04:09:55.964Z,0.00
2023-03-15T04:10:55.942Z,0.00
2023-03-15T04:11:55.935Z,0.00
2023-03-15T04:12:55.940Z,0.00
2023-03-15T04:13:55.945Z,0.00
2023-03-15T04:14:55.936Z,0.00
2023-03-15T04:15:55.951Z,0.00
2023-03-15T04:16:55.898Z,0.00
2023-03-15T04:17:56.067Z,0.00
2023-03-15T04:18:55.914Z,0.00
2023-03-15T04:19:55.901Z,0.00
2023-03-15T04:20:55.884Z,0.00
2023-03-15T04:21:55.894Z,0.00
2023-03-15T04:22:55.865Z,0.00
2023-03-15T04:23:55.878Z,0.00
2023-03-15T04:24:55.853Z,0.00
2023-03-15T04:25:55.865Z,0.00
2023-03-15T04:26:55.860Z,0.00
2023-03-15T04:27:55.834Z,0.00
2023-03-15T04:28:55.850Z,0.00
2023-03-15T04:29:55.844Z,0.00
2023-03-15T04:30:55.890Z,0.00
2023-03-15T04:31:55.827Z,0.00
2023-03-15T04:32:55.856Z,0.00
2023-03-15T04:33:55.821Z,0.00
2023-03-15T04:34:55.840Z,0.00
2023-03-15T04:35:55.902Z,0.00
2023-03-15T04:36:55.841Z,0.00
2023-03-15T04:37:55.803Z,0.00
2023-03-15T04:38:55.805Z,0.00
2023-03-15T04:39:55.823Z,0.00
2023-03-15T04:40:55.795Z,0.00
2023-03-15T04:41:55.790Z,0.00
2023-03-15T04:42:55.777Z,0.00
2023-03-15T04:43:55.786Z,0.00
2023-03-15T04:44:55.831Z,0.00
2023-03-15T04:45:55.775Z,0.00
2023-03-15T04:46:55.866Z,0.00
2023-03-15T04:47:55.763Z,0.00
2023-03-15T04:48:55.770Z,0.00
2023-03-15T04:49:55.759Z,0.00
2023-03-15T04:50:55.751Z,0.00
2023-03-15T04:51:55.739Z,0.00
2023-03-15T04:52:55.739Z,0.00
2023-03-15T04:53:55.746Z,0.00
2023-03-15T04:54:55.749Z,0.00
2023-03-15T04:55:55.722Z,0.00
2023-03-15T04:56:55.769Z,0.00
2023-03-15T04:57:55.743Z,0.00
2023-03-15T04:58:55.702Z,0.00
2023-03-15T04:59:55.706Z,0.00
2023-03-15T05:00:55.759Z,0.00
2023-03-15T05:01:55.718Z,0.00
2023-03-15T05:02:55.717Z,0.00
2023-03-15T05:03:55.717Z,0.00
2023-03-15T05:04:55.713Z,0.00
2023-03-15T05:05:55.726Z,0.00
2023-03-15T05:06:55.686Z,0.00
2023-03-15T05:07:55.662Z,0.00
2023-03-15T05:08:55.664Z,0.00
2023-03-15T05:09:55.655Z,0.00
2023-03-15T05:10:55.654Z,0.00
2023-03-15T05:11:55.858Z,0.00
2023-03-15T05:12:55.647Z,0.00
2023-03-15T05:13:55.649Z,0.00
2023-03-15T05:14:55.662Z,0.00
2023-03-15T05:15:55.706Z,0.00
2023-03-15T05:16:55.666Z,0.00
2023-03-15T05:17:55.628Z,0.00
2023-03-15T05:18:55.631Z,0.00
2023-03-15T05:19:55.613Z,0.00
2023-03-15T05:20:55.624Z,0.00
2023-03-15T05:21:55.610Z,4.00
2023-03-15T05:22:55.631Z,4.00
2023-03-15T05:23:55.611Z,4.00
2023-03-15T05:24:55.600Z,0.00
2023-03-15T05:25:55.610Z,4.00
2023-03-15T05:26:55.588Z,4.00
2023-03-15T05:27:55.577Z,0.00
2023-03-15T05:28:55.645Z,4.00
2023-03-15T05:29:55.576Z,8.00
2023-03-15T05:30:55.590Z,8.00
2023-03-15T05:31:55.662Z,8.00
2023-03-15T05:32:55.667Z,12.00
2023-03-15T05:33:55.561Z,16.00
2023-03-15T05:34:55.564Z,16.00
2023-03-15T05:35:55.612Z,20.00
2023-03-15T05:36:55.542Z,20.00
2023-03-15T05:37:55.555Z,24.00
2023-03-15T05:38:55.529Z,28.00
2023-03-15T05:39:55.544Z,36.00
2023-03-15T05:40:55.539Z,40.00
2023-03-15T05:41:55.555Z,48.00
2023-03-15T05:42:55.563Z,56.00
2023-03-15T05:43:55.521Z,60.00
2023-03-15T05:44:55.501Z,68.00
2023-03-15T05:45:55.513Z,76.00
2023-03-15T05:46:55.489Z,88.00
2023-03-15T05:47:55.514Z,100.00
2023-03-15T05:48:55.494Z,108.00
2023-03-15T05:49:55.483Z,120.00
2023-03-15T05:50:55.527Z,132.00
2023-03-15T05:51:55.468Z,140.00
2023-03-15T05:52:55.524Z,152.00
2023-03-15T05:53:55.461Z,160.00
2023-03-15T05:54:55.561Z,172.00
2023-03-15T05:55:55.450Z,180.00
2023-03-15T05:56:55.452Z,192.00
2023-03-15T05:57:55.448Z,208.00
2023-03-15T05:58:55.478Z,220.00
2023-03-15T05:59:55.437Z,232.00
2023-03-15T06:00:55.454Z,248.00
2023-03-15T06:01:55.426Z,260.00
2023-03-15T06:02:55.475Z,272.00
2023-03-15T06:03:55.480Z,288.00
2023-03-15T06:04:55.417Z,304.00
2023-03-15T06:05:55.406Z,316.00
2023-03-15T06:06:55.419Z,328.00
2023-03-15T06:07:55.414Z,344.00
2023-03-15T06:08:55.425Z,356.00
2023-03-15T06:09:55.418Z,368.00
2023-03-15T06:10:55.421Z,380.00
2023-03-15T06:11:55.402Z,396.00
2023-03-15T06:12:55.405Z,412.00
2023-03-15T06:13:55.396Z,424.00
2023-03-15T06:14:55.370Z,432.00
2023-03-15T06:15:55.366Z,448.00
2023-03-15T06:16:55.496Z,452.00
2023-03-15T06:17:55.378Z,464.00
2023-03-15T06:18:55.353Z,472.00
2023-03-15T06:19:55.353Z,480.00
2023-03-15T06:20:55.352Z,496.00
2023-03-15T06:21:55.345Z,508.00
2023-03-15T06:22:55.361Z,528.00
2023-03-15T06:23:55.368Z,548.00
2023-03-15T06:24:55.417Z,560.00
2023-03-15T06:25:55.329Z,572.00
2023-03-15T06:26:55.325Z,588.00
2023-03-15T06:27:55.341Z,616.00
2023-03-15T06:28:55.419Z,768.00
2023-03-15T06:29:55.297Z,812.00
2023-03-15T06:30:55.350Z,836.00
2023-03-15T06:31:55.288Z,884.00
2023-03-15T06:32:55.377Z,932.00
2023-03-15T06:33:55.288Z,948.00
2023-03-15T06:34:55.278Z,964.00
2023-03-15T06:35:55.290Z,1004.00
2023-03-15T06:36:55.281Z,1088.00
2023-03-15T06:37:55.305Z,1076.00
2023-03-15T06:38:55.308Z,1088.00
2023-03-15T06:39:55.279Z,1124.00
2023-03-15T06:40:55.285Z,1192.00
2023-03-15T06:41:55.250Z,1268.00
2023-03-15T06:42:55.244Z,1360.00
2023-03-15T06:43:55.255Z,1468.00
2023-03-15T06:44:55.253Z,1588.00
2023-03-15T06:45:55.518Z,1648.00
2023-03-15T06:48:28.279Z,1748.00
2023-03-15T06:49:28.250Z,1816.00
2023-03-15T06:50:34.438Z,1844.00
2023-03-15T06:51:28.277Z,1872.00
2023-03-15T06:52:28.265Z,1916.00
2023-03-15T06:53:28.271Z,1960.00
2023-03-15T06:54:28.254Z,1956.00
2023-03-15T06:55:28.281Z,1980.00
2023-03-15T06:56:28.261Z,2004.00
2023-03-15T06:57:30.050Z,2048.00
2023-03-15T06:58:28.269Z,1976.00
2023-03-15T06:59:28.297Z,2164.00
2023-03-15T07:00:28.242Z,2160.00
2023-03-15T07:01:28.334Z,2244.00
2023-03-15T07:02:28.297Z,2256.00
2023-03-15T07:03:28.230Z,2276.00
2023-03-15T07:04:28.219Z,2328.00
2023-03-15T07:05:28.228Z,2388.00
2023-03-15T07:06:28.237Z,2416.00
2023-03-15T07:08:28.274Z,2440.00
2023-03-15T07:09:28.182Z,2464.00
2023-03-15T07:10:28.221Z,2508.00
2023-03-15T07:11:28.194Z,2528.00
2023-03-15T07:12:28.186Z,2556.00
2023-03-15T07:13:28.202Z,2592.00
2023-03-15T07:14:28.157Z,2616.00
2023-03-15T07:15:28.208Z,2648.00
2023-03-15T07:16:28.181Z,2644.00
2023-03-15T07:17:28.145Z,2608.00
2023-03-15T07:18:28.151Z,2672.00
2023-03-15T07:19:28.148Z,2624.00
2023-03-15T07:20:28.149Z,2480.00
2023-03-15T07:21:28.145Z,2536.00
2023-03-15T07:22:28.167Z,2608.00
2023-03-15T07:23:28.126Z,2648.00
2023-03-15T07:24:28.125Z,2624.00
2023-03-15T07:25:28.128Z,2708.00
2023-03-15T07:26:28.131Z,2760.00
2023-03-15T07:27:28.138Z,2804.00
2023-03-15T07:28:28.187Z,2856.00
2023-03-15T07:29:28.109Z,2948.00
2023-03-15T07:30:28.156Z,2996.00
2023-03-15T07:31:28.189Z,3024.00
2023-03-15T07:32:28.323Z,3052.00
2023-03-15T07:33:28.162Z,3080.00
2023-03-15T07:34:28.092Z,3096.00
2023-03-15T07:35:28.124Z,3100.00
2023-03-15T07:36:28.096Z,3108.00
2023-03-15T07:37:28.091Z,3128.00
2023-03-15T07:38:28.074Z,3152.00
2023-03-15T07:39:28.079Z,3124.00
2023-03-15T07:40:28.095Z,3164.00
2023-03-15T07:41:28.071Z,3212.00
2023-03-15T07:42:28.090Z,2792.00
2023-03-15T07:43:28.139Z,3212.00
2023-03-15T07:44:28.081Z,3192.00
2023-03-15T07:45:28.086Z,3236.00
2023-03-15T07:46:28.085Z,3248.00
2023-03-15T07:47:28.069Z,3272.00
2023-03-15T07:48:28.044Z,3264.00
2023-03-15T07:49:28.037Z,3296.00
2023-03-15T07:50:28.096Z,3244.00
2023-03-15T07:51:28.058Z,3340.00
2023-03-15T07:52:28.133Z,3380.00
2023-03-15T07:53:28.048Z,3388.00
2023-03-15T07:54:28.869Z,3412.00
2023-03-15T07:55:28.074Z,3440.00
2023-03-15T07:56:28.016Z,3468.00
2023-03-15T07:57:29.017Z,3464.00
2023-03-15T07:58:28.031Z,3440.00
2023-03-15T07:59:28.040Z,3472.00
2023-03-15T08:00:28.045Z,3476.00
2023-03-15T08:01:28.015Z,3484.00
2023-03-15T08:02:30.197Z,3488.00
2023-03-15T08:03:28.070Z,3480.00
2023-03-15T08:04:28.005Z,3452.00
2023-03-15T08:05:29.190Z,3468.00
2023-03-15T08:06:28.121Z,3484.00
2023-03-15T08:07:27.985Z,3496.00
2023-03-15T08:08:27.990Z,3500.00
2023-03-15T08:09:28.000Z,3504.00
2023-03-15T08:10:28.004Z,3492.00
2023-03-15T08:11:28.012Z,3496.00
2023-03-15T08:13:27.976Z,3416.00
2023-03-15T08:14:27.997Z,3436.00
2023-03-15T08:15:28.000Z,3376.00
2023-03-15T08:16:28.061Z,3400.00
2023-03-15T08:17:27.971Z,3376.00
2023-03-15T08:18:27.972Z,3344.00
2023-03-15T08:19:27.966Z,3408.00
2023-03-15T08:20:29.814Z,3308.00
2023-03-15T08:21:27.974Z,3376.00
2023-03-15T08:22:27.995Z,3372.00
2023-03-15T08:23:27.957Z,3328.00
2023-03-15T08:24:27.953Z,3316.00
2023-03-15T08:25:27.949Z,3340.00
2023-03-15T08:26:27.983Z,3324.00
2023-03-15T08:28:27.970Z,3308.00
2023-03-15T08:29:27.948Z,3328.00
2023-03-15T08:30:28.099Z,3340.00
2023-03-15T08:31:28.062Z,3344.00
2023-03-15T08:32:27.982Z,3312.00
2023-03-15T08:33:27.953Z,3312.00
2023-03-15T08:34:27.937Z,3296.00
2023-03-15T08:35:28.015Z,3284.00
2023-03-15T08:36:28.499Z,3272.00
2023-03-15T08:37:28.984Z,3264.00
2023-03-15T08:38:28.033Z,3256.00
2023-03-15T08:39:28.035Z,3236.00
2023-03-15T08:40:28.385Z,3236.00
2023-03-15T08:41:28.082Z,3220.00
2023-03-15T08:42:27.963Z,3216.00
2023-03-15T08:43:27.940Z,3204.00
2023-03-15T08:44:28.200Z,3200.00
2023-03-15T08:45:27.948Z,3208.00
2023-03-15T08:46:28.085Z,3180.00
2023-03-15T08:47:27.967Z,3152.00
2023-03-15T08:48:27.908Z,3208.00
2023-03-15T08:49:27.907Z,3248.00
2023-03-15T08:50:27.957Z,3236.00
2023-03-15T08:51:27.926Z,3180.00
2023-03-15T08:52:27.933Z,3180.00
2023-03-15T08:53:27.923Z,3188.00
2023-03-15T08:54:28.506Z,3176.00
2023-03-15T08:55:27.888Z,3248.00
2023-03-15T08:56:27.893Z,3268.00
2023-03-15T08:57:27.921Z,3256.00
2023-03-15T08:58:27.902Z,3260.00
2023-03-15T08:59:32.318Z,3296.00
2023-03-15T09:00:27.935Z,3352.00
2023-03-15T09:01:27.890Z,3368.00
2023-03-15T09:02:27.976Z,3304.00
2023-03-15T09:03:27.884Z,3296.00
2023-03-15T09:04:28.010Z,3284.00
2023-03-15T09:05:27.903Z,3248.00
2023-03-15T09:06:27.894Z,3272.00
2023-03-15T09:07:27.867Z,3280.00
2023-03-15T09:08:27.868Z,3304.00
2023-03-15T09:09:27.872Z,3256.00
2023-03-15T09:10:27.895Z,3024.00
2023-03-15T09:11:27.962Z,2500.00
2023-03-15T09:12:27.866Z,2624.00
2023-03-15T09:13:27.865Z,2088.00
2023-03-15T09:14:27.882Z,2668.00
2023-03-15T09:15:27.872Z,3176.00
2023-03-15T09:16:28.117Z,3200.00
2023-03-15T09:17:27.892Z,3144.00
2023-03-15T09:18:27.897Z,3164.00
2023-03-15T09:19:27.891Z,3164.00
2023-03-15T09:20:27.847Z,3108.00
2023-03-15T09:21:27.855Z,2336.00
2023-03-15T09:22:38.974Z,1236.00
2023-03-15T09:23:27.867Z,3084.00
2023-03-15T09:24:27.879Z,3140.00
2023-03-15T09:25:27.851Z,3144.00
2023-03-15T09:26:27.862Z,3124.00
2023-03-15T09:27:27.920Z,3116.00
2023-03-15T09:28:27.866Z,3140.00
2023-03-15T09:30:27.864Z,2564.00
2023-03-15T09:31:27.974Z,3204.00
2023-03-15T09:32:27.925Z,3292.00
2023-03-15T09:33:27.835Z,3320.00
2023-03-15T09:34:33.286Z,3292.00
2023-03-15T09:35:27.906Z,3312.00
2023-03-15T09:36:27.853Z,3368.00
2023-03-15T09:37:27.860Z,3372.00
2023-03-15T09:38:27.841Z,3476.00
2023-03-15T09:39:27.848Z,3744.00
2023-03-15T09:41:27.846Z,3244.00
2023-03-15T09:42:27.860Z,3352.00
2023-03-15T09:43:27.845Z,3352.00
2023-03-15T09:44:27.857Z,3628.00
2023-03-15T09:45:27.841Z,3704.00
2023-03-15T09:46:28.091Z,3308.00
2023-03-15T09:47:27.830Z,3428.00
2023-03-15T09:48:27.952Z,3268.00
2023-03-15T09:51:00.925Z,3224.00
2023-03-15T09:52:00.853Z,3204.00
2023-03-15T09:53:00.868Z,1520.00
2023-03-15T09:55:00.851Z,3680.00
2023-03-15T09:56:00.867Z,2404.00
2023-03-15T09:57:00.855Z,3540.00
2023-03-15T09:58:00.868Z,3552.00
2023-03-15T09:59:00.873Z,3680.00
2023-03-15T10:00:00.846Z,3892.00
2023-03-15T10:01:00.860Z,3300.00
2023-03-15T10:02:00.877Z,3904.00
2023-03-15T10:13:20.328Z,3608.00
2023-03-15T10:14:20.296Z,3624.00
2023-03-15T10:15:20.281Z,3748.00
2023-03-15T10:16:20.320Z,3792.00
2023-03-15T10:17:20.248Z,3952.00
2023-03-15T10:18:20.269Z,4216.00
2023-03-15T10:19:20.255Z,4372.00
2023-03-15T10:20:20.259Z,4380.00
2023-03-15T10:22:20.272Z,4092.00
2023-03-15T10:23:20.335Z,4576.00
2023-03-15T10:24:20.239Z,4448.00
2023-03-15T10:25:20.261Z,3760.00
2023-03-15T10:26:20.357Z,4256.00
2023-03-15T10:27:20.281Z,4240.00
2023-03-15T10:28:21.533Z,4164.00
2023-03-15T10:29:20.530Z,4088.00
2023-03-15T10:30:20.492Z,4056.00
2023-03-15T10:31:22.906Z,4016.00
2023-03-15T10:32:20.293Z,3992.00
2023-03-15T10:33:20.318Z,4080.00
2023-03-15T10:34:20.324Z,4084.00
2023-03-15T10:35:20.261Z,4072.00
2023-03-15T10:36:20.340Z,4120.00
2023-03-15T10:37:20.256Z,4440.00
2023-03-15T10:38:20.254Z,4672.00
2023-03-15T10:39:20.234Z,4540.00
2023-03-15T10:40:20.283Z,4396.00
2023-03-15T10:41:28.490Z,4572.00
2023-03-15T10:42:20.280Z,4660.00
2023-03-15T10:43:20.251Z,2860.00
2023-03-15T10:44:20.261Z,2952.00
2023-03-15T10:45:20.301Z,3432.00
2023-03-15T10:46:20.414Z,2736.00
2023-03-15T10:47:24.167Z,2476.00
2023-03-15T10:48:20.411Z,2460.00
2023-03-15T10:49:20.253Z,3240.00
2023-03-15T10:50:20.290Z,2916.00
2023-03-15T10:51:22.364Z,5012.00
2023-03-15T10:52:20.277Z,4936.00
2023-03-15T10:53:20.248Z,5024.00
2023-03-15T10:54:20.275Z,5256.00
2023-03-15T10:55:20.248Z,5276.00
2023-03-15T10:56:20.243Z,5196.00
2023-03-15T10:57:20.269Z,3444.00
2023-03-15T10:58:20.273Z,4340.00
2023-03-15T10:59:20.258Z,4572.00
2023-03-15T11:00:20.373Z,5368.00
2023-03-15T11:01:20.327Z,3596.00
2023-03-15T11:02:20.357Z,5832.00
2023-03-15T11:03:20.279Z,6000.00
2023-03-15T11:04:20.246Z,5976.00
2023-03-15T11:05:20.260Z,5788.00
2023-03-15T11:06:20.262Z,5612.00
2023-03-15T11:07:20.276Z,2868.00
2023-03-15T11:08:20.262Z,3036.00
2023-03-15T11:09:20.272Z,2752.00
2023-03-15T11:10:20.276Z,2828.00
2023-03-15T11:11:20.321Z,3452.00
2023-03-15T11:12:20.262Z,3860.00
2023-03-15T11:13:20.268Z,4176.00
2023-03-15T11:14:20.267Z,3760.00
2023-03-15T11:15:20.288Z,3516.00
2023-03-15T11:16:20.312Z,4132.00
2023-03-15T11:17:20.307Z,3236.00
2023-03-15T11:18:20.294Z,3284.00
2023-03-15T11:19:20.275Z,3712.00
2023-03-15T11:20:20.302Z,3940.00
2023-03-15T11:21:20.293Z,3800.00
2023-03-15T11:22:20.269Z,3556.00
2023-03-15T11:23:20.270Z,3304.00
2023-03-15T11:24:20.319Z,3440.00
2023-03-15T11:25:20.309Z,3744.00
2023-03-15T11:26:31.514Z,4088.00
2023-03-15T11:27:20.322Z,4572.00
2023-03-15T11:28:20.378Z,6396.00
2023-03-15T11:29:20.270Z,5804.00
2023-03-15T11:30:20.305Z,3668.00
2023-03-15T11:31:20.331Z,3716.00
2023-03-15T11:32:20.287Z,6924.00
2023-03-15T11:33:20.303Z,3736.00
2023-03-15T11:34:20.289Z,3364.00
2023-03-15T11:35:20.329Z,5352.00
2023-03-15T11:36:20.314Z,2660.00
2023-03-15T11:37:20.319Z,2576.00
2023-03-15T11:38:20.285Z,2520.00
2023-03-15T11:39:20.299Z,2584.00
2023-03-15T11:40:20.286Z,2620.00
2023-03-15T11:41:20.288Z,2676.00
2023-03-15T11:42:20.320Z,2604.00
2023-03-15T11:43:20.288Z,2308.00
2023-03-15T11:44:20.342Z,2052.00
2023-03-15T11:45:20.298Z,2132.00
2023-03-15T11:46:20.290Z,2300.00
2023-03-15T11:47:20.309Z,2480.00
2023-03-15T11:48:20.295Z,2660.00
2023-03-15T11:49:20.298Z,2908.00
2023-03-15T11:50:20.300Z,2992.00
2023-03-15T11:51:20.295Z,3132.00
2023-03-15T11:52:20.299Z,6340.00
2023-03-15T11:53:20.297Z,3268.00
2023-03-15T11:55:20.303Z,2780.00
2023-03-15T11:56:20.309Z,7524.00
2023-03-15T11:57:20.280Z,8212.00
2023-03-15T11:58:20.289Z,5520.00
2023-03-15T11:59:20.303Z,4076.00
2023-03-15T12:00:20.371Z,4540.00
2023-03-15T12:01:20.286Z,4960.00
2023-03-15T12:02:20.367Z,9268.00
2023-03-15T12:03:20.353Z,8728.00
2023-03-15T12:04:20.284Z,7716.00
2023-03-15T12:05:20.308Z,3752.00
2023-03-15T12:06:20.276Z,2952.00
2023-03-15T12:07:20.433Z,2580.00
2023-03-15T12:08:20.302Z,2324.00
2023-03-15T12:09:20.276Z,2260.00
2023-03-15T12:10:20.368Z,2284.00
2023-03-15T12:11:20.282Z,2380.00
2023-03-15T12:12:20.329Z,2308.00
2023-03-15T12:13:20.285Z,2400.00
2023-03-15T12:14:20.287Z,2740.00
2023-03-15T12:15:20.477Z,3248.00
2023-03-15T12:16:20.427Z,3664.00
2023-03-15T12:17:21.366Z,3624.00
2023-03-15T12:18:20.360Z,9856.00
2023-03-15T12:19:20.302Z,10188.00
2023-03-15T12:20:20.313Z,10304.00
2023-03-15T12:21:20.302Z,10312.00
2023-03-15T12:22:20.303Z,10492.00
2023-03-15T12:23:20.327Z,10664.00
2023-03-15T12:24:20.304Z,10800.00
2023-03-15T12:25:20.282Z,10636.00
2023-03-15T12:26:20.301Z,10224.00
2023-03-15T12:27:20.277Z,11756.00
2023-03-15T12:28:20.287Z,9516.00
2023-03-15T12:29:20.339Z,12316.00
2023-03-15T12:30:20.291Z,12560.00
2023-03-15T12:31:20.443Z,13416.00
2023-03-15T12:32:20.281Z,12220.00
2023-03-15T12:33:20.325Z,13504.00
2023-03-15T12:34:20.295Z,11680.00
2023-03-15T12:35:20.289Z,9820.00
2023-03-15T12:36:20.292Z,13028.00
2023-03-15T12:37:20.329Z,12644.00
2023-03-15T12:38:20.297Z,7104.00
2023-03-15T12:39:20.351Z,5192.00
2023-03-15T12:40:20.313Z,4692.00
2023-03-15T12:41:20.345Z,3984.00
2023-03-15T12:42:20.309Z,3580.00
2023-03-15T12:43:20.324Z,3216.00
2023-03-15T12:44:20.330Z,3004.00
2023-03-15T12:45:20.330Z,2908.00
2023-03-15T12:46:20.415Z,2812.00
2023-03-15T12:47:20.382Z,2716.00
2023-03-15T12:48:20.319Z,2620.00
2023-03-15T12:49:20.311Z,2600.00
2023-03-15T12:50:20.330Z,2656.00
2023-03-15T12:51:20.357Z,2928.00
2023-03-15T12:52:20.327Z,3276.00
2023-03-15T12:53:20.340Z,3712.00
2023-03-15T12:54:20.378Z,17976.00
2023-03-15T12:55:20.353Z,16524.00
2023-03-15T12:56:20.337Z,55488.00
2023-03-15T12:57:20.328Z,28576.00
2023-03-15T12:58:20.376Z,2944.00
2023-03-15T12:59:20.340Z,53280.00
2023-03-15T13:00:20.360Z,54784.00
2023-03-15T13:01:20.360Z,3764.00
2023-03-15T13:02:23.050Z,2784.00
2023-03-15T13:03:20.385Z,17828.00
2023-03-15T13:04:20.351Z,25472.00
2023-03-15T13:05:20.358Z,60160.00
2023-03-15T13:06:20.349Z,32672.00
2023-03-15T13:07:20.364Z,17440.00
2023-03-15T13:08:20.380Z,17376.00
2023-03-15T13:09:20.392Z,33120.00
2023-03-15T13:12:53.473Z,13668.00
2023-03-15T13:13:53.466Z,5760.00
2023-03-15T13:14:53.490Z,3552.00
2023-03-15T13:15:53.508Z,55680.00
2023-03-15T13:16:53.459Z,33568.00
2023-03-15T13:17:53.471Z,17504.00
2023-03-15T13:18:53.474Z,16608.00
2023-03-15T13:19:53.505Z,28896.00
2023-03-15T13:20:53.486Z,54656.00
2023-03-15T13:21:53.490Z,54912.00
2023-03-15T13:22:55.775Z,1952.00
2023-03-15T13:23:53.504Z,2688.00
2023-03-15T13:24:53.536Z,1816.00
2023-03-15T13:25:53.489Z,1900.00
2023-03-15T13:26:53.493Z,2296.00
2023-03-15T13:27:53.498Z,2796.00
2023-03-15T13:28:53.495Z,3436.00
2023-03-15T13:29:53.600Z,63712.00
2023-03-15T13:30:53.696Z,66336.00
2023-03-15T13:31:53.495Z,65344.00
2023-03-15T13:32:53.607Z,36384.00
2023-03-15T13:33:53.522Z,66592.00
2023-03-15T13:34:53.511Z,68512.00
2023-03-15T13:35:54.214Z,66112.00
2023-03-15T13:36:53.545Z,11568.00
2023-03-15T13:37:53.525Z,61408.00
2023-03-15T13:38:53.529Z,64960.00
2023-03-15T13:39:53.538Z,9928.00
2023-03-15T13:40:53.554Z,16080.00
2023-03-15T13:41:53.539Z,21920.00
2023-03-15T13:42:53.531Z,14132.00
2023-03-15T13:43:53.532Z,40576.00
2023-03-15T13:44:53.556Z,57696.00
2023-03-15T13:45:53.554Z,24704.00
2023-03-15T13:46:53.588Z,9588.00
2023-03-15T13:47:53.560Z,40640.00
2023-03-15T13:48:53.560Z,4684.00
2023-03-15T13:49:53.574Z,3768.00
2023-03-15T13:50:53.556Z,6280.00
2023-03-15T13:51:53.596Z,2904.00
2023-03-15T13:52:53.563Z,2696.00
2023-03-15T13:53:53.578Z,3364.00
2023-03-15T13:54:53.569Z,2424.00
2023-03-15T13:55:53.578Z,2224.00
2023-03-15T13:56:53.620Z,2368.00
2023-03-15T13:57:53.577Z,2948.00
2023-03-15T13:58:53.587Z,39680.00
2023-03-15T13:59:53.604Z,57568.00
2023-03-15T14:00:53.584Z,59616.00
2023-03-15T14:01:53.806Z,59936.00
2023-03-15T14:02:53.709Z,60288.00
2023-03-15T14:03:53.617Z,59488.00
2023-03-15T14:04:53.609Z,58656.00
2023-03-15T14:05:53.586Z,61792.00
2023-03-15T14:06:53.645Z,60864.00
2023-03-15T14:07:53.590Z,61344.00
2023-03-15T14:08:53.598Z,60960.00
2023-03-15T14:09:55.285Z,63776.00
2023-03-15T14:10:53.609Z,64448.00
2023-03-15T14:11:53.626Z,66688.00
2023-03-15T14:12:53.636Z,67168.00
2023-03-15T14:13:53.616Z,64576.00
2023-03-15T14:14:53.645Z,62048.00
2023-03-15T14:15:53.700Z,61856.00
2023-03-15T14:17:04.953Z,62080.00
2023-03-15T14:17:53.637Z,58944.00
2023-03-15T14:18:53.630Z,58592.00
2023-03-15T14:19:53.683Z,40704.00
2023-03-15T14:20:53.640Z,55584.00
2023-03-15T14:21:53.659Z,11760.00
2023-03-15T14:22:53.652Z,56096.00
2023-03-15T14:23:53.650Z,55648.00
2023-03-15T14:24:53.666Z,56992.00
2023-03-15T14:25:53.662Z,56736.00
2023-03-15T14:26:53.719Z,50496.00
2023-03-15T14:27:53.672Z,58400.00
2023-03-15T14:28:53.685Z,57248.00
2023-03-15T14:29:53.681Z,55328.00
2023-03-15T14:30:53.689Z,54176.00
2023-03-15T14:31:53.706Z,55104.00
2023-03-15T14:32:53.806Z,54496.00
2023-03-15T14:33:53.728Z,54720.00
2023-03-15T14:34:53.708Z,55424.00
2023-03-15T14:35:54.353Z,53696.00
2023-03-15T14:36:53.720Z,52064.00
2023-03-15T14:37:53.725Z,53632.00
2023-03-15T14:38:53.737Z,53184.00
2023-03-15T14:39:53.728Z,53088.00
2023-03-15T14:40:53.747Z,53504.00
2023-03-15T14:41:53.750Z,52832.00
2023-03-15T14:42:53.820Z,51936.00
2023-03-15T14:43:53.794Z,50912.00
2023-03-15T14:44:53.798Z,51872.00
2023-03-15T14:45:53.815Z,51776.00
2023-03-15T14:46:53.766Z,49824.00
2023-03-15T14:47:57.113Z,48864.00
2023-03-15T14:48:53.770Z,48128.00
2023-03-15T14:49:53.778Z,47424.00
2023-03-15T14:50:53.804Z,47200.00
2023-03-15T14:51:53.782Z,47264.00
2023-03-15T14:52:53.802Z,45824.00
2023-03-15T14:53:53.797Z,44800.00
2023-03-15T14:54:53.818Z,44832.00
2023-03-15T14:55:53.827Z,45184.00
2023-03-15T14:56:53.822Z,43520.00
2023-03-15T14:57:53.852Z,43136.00
2023-03-15T14:58:53.833Z,41792.00
2023-03-15T14:59:53.845Z,39072.00
2023-03-15T15:00:54.031Z,39168.00
2023-03-15T15:01:53.899Z,40832.00
2023-03-15T15:02:53.848Z,41248.00
2023-03-15T15:03:53.853Z,40768.00
2023-03-15T15:05:14.875Z,38432.00
2023-03-15T15:05:53.888Z,37728.00
2023-03-15T15:06:53.891Z,37824.00
2023-03-15T15:07:53.883Z,39840.00
2023-03-15T15:08:53.893Z,39616.00
2023-03-15T15:09:53.903Z,38816.00
2023-03-15T15:10:53.925Z,37856.00
2023-03-15T15:11:53.908Z,37248.00
2023-03-15T15:13:05.608Z,36192.00
2023-03-15T15:13:53.939Z,34432.00
2023-03-15T15:14:53.996Z,34432.00
2023-03-15T15:15:56.379Z,31680.00
2023-03-15T15:16:54.075Z,28800.00
2023-03-15T15:17:53.951Z,26784.00
2023-03-15T15:18:53.934Z,25568.00
2023-03-15T15:19:53.927Z,25408.00
2023-03-15T15:20:53.930Z,26496.00
2023-03-15T15:21:53.951Z,26208.00
2023-03-15T15:22:53.940Z,25696.00
2023-03-15T15:24:00.500Z,15848.00
2023-03-15T15:24:53.952Z,5016.00
2023-03-15T15:25:54.063Z,3904.00
2023-03-15T15:26:53.956Z,3708.00
2023-03-15T15:27:53.950Z,3536.00
2023-03-15T15:28:53.962Z,3384.00
2023-03-15T15:29:53.982Z,3264.00
2023-03-15T15:30:53.986Z,3148.00
2023-03-15T15:31:54.018Z,3040.00
2023-03-15T15:32:54.060Z,2940.00
2023-03-15T15:33:53.990Z,2848.00
2023-03-15T15:34:53.998Z,2760.00
2023-03-15T15:35:54.047Z,2684.00
2023-03-15T15:36:53.989Z,2624.00
2023-03-15T15:37:53.976Z,2568.00
2023-03-15T15:38:53.998Z,2508.00
2023-03-15T15:39:53.986Z,2460.00
2023-03-15T15:40:53.996Z,2408.00
2023-03-15T15:41:54.003Z,2352.00
2023-03-15T15:42:54.006Z,2304.00
2023-03-15T15:43:54.007Z,2256.00
2023-03-15T15:44:53.996Z,2212.00
2023-03-15T15:45:54.030Z,2160.00
2023-03-15T15:46:53.994Z,2116.00
2023-03-15T15:47:53.993Z,2088.00
2023-03-15T15:48:54.052Z,2012.00
2023-03-15T15:49:53.991Z,2024.00
2023-03-15T15:50:54.009Z,1988.00
2023-03-15T15:51:54.011Z,1952.00
2023-03-15T15:52:54.014Z,1920.00
2023-03-15T15:53:53.994Z,1880.00
2023-03-15T15:54:53.995Z,1860.00
2023-03-15T15:55:54.005Z,1836.00
2023-03-15T15:56:53.999Z,1800.00
2023-03-15T15:57:54.024Z,1752.00
2023-03-15T15:58:54.012Z,1724.00
2023-03-15T15:59:54.012Z,1704.00
2023-03-15T16:00:53.999Z,1676.00
2023-03-15T16:12:33.574Z,1360.00
2023-03-15T16:13:33.525Z,1324.00
2023-03-15T16:14:33.532Z,1308.00
2023-03-15T16:15:33.647Z,1256.00
2023-03-15T16:16:33.515Z,1256.00
2023-03-15T16:17:33.524Z,1252.00
2023-03-15T16:18:33.527Z,1240.00
2023-03-15T16:19:33.532Z,1212.00
2023-03-15T16:20:33.517Z,1192.00
2023-03-15T16:21:33.639Z,1180.00
2023-03-15T16:22:33.501Z,1176.00
2023-03-15T16:23:33.516Z,1144.00
2023-03-15T16:24:35.977Z,1108.00
2023-03-15T16:25:33.501Z,1076.00
2023-03-15T16:26:33.507Z,1056.00
2023-03-15T16:27:33.815Z,1040.00
2023-03-15T16:29:33.499Z,1012.00
2023-03-15T16:30:33.483Z,1000.00
2023-03-15T16:31:33.537Z,984.00
2023-03-15T16:32:43.858Z,972.00
2023-03-15T16:33:33.491Z,956.00
2023-03-15T16:34:33.472Z,944.00
2023-03-15T16:35:33.510Z,924.00
2023-03-15T16:36:33.470Z,908.00
2023-03-15T16:37:33.505Z,900.00
2023-03-15T16:38:33.462Z,920.00
2023-03-15T16:39:33.460Z,912.00
2023-03-15T16:40:33.449Z,888.00
2023-03-15T16:41:33.452Z,872.00
2023-03-15T16:42:33.457Z,852.00
2023-03-15T16:43:33.457Z,832.00
2023-03-15T16:44:33.463Z,816.00
2023-03-15T16:45:33.480Z,796.00
2023-03-15T16:46:33.468Z,776.00